sensor_id;sensor_type;location;lat;lon;timestamp;P1;durP1;ratioP1;P2;durP2;ratioP2
32216;SDS011;67098;51.140;4.088;2023-06-10T00:01:55;11.20;;;7.53;;
32216;SDS011;67098;51.140;4.088;2023-06-10T00:04:24;10.77;;;7.80;;
32216;SDS011;67098;51.140;4.088;2023-06-10T00:06:53;12.23;;;7.18;;
32216;SDS011;67098;51.140;4.088;2023-06-10T00:09:20;9.75;;;7.18;;
32216;SDS011;67098;51.140;4.088;2023-06-10T00:11:46;11.65;;;7.15;;
32216;SDS011;67098;51.140;4.088;2023-06-10T00:14:12;13.20;;;7.07;;
32216;SDS011;67098;51.140;4.088;2023-06-10T00:16:38;14.13;;;7.00;;
32216;SDS011;67098;51.140;4.088;2023-06-10T00:19:04;15.88;;;7.47;;
32216;SDS011;67098;51.140;4.088;2023-06-10T00:21:31;8.95;;;7.13;;
32216;SDS011;67098;51.140;4.088;2023-06-10T00:24:05;10.20;;;7.60;;
32216;SDS011;67098;51.140;4.088;2023-06-10T00:26:32;17.02;;;7.80;;
32216;SDS011;67098;51.140;4.088;2023-06-10T00:29:01;11.77;;;7.10;;
32216;SDS011;67098;51.140;4.088;2023-06-10T00:31:27;9.68;;;7.47;;
32216;SDS011;67098;51.140;4.088;2023-06-10T00:33:53;12.65;;;7.78;;
32216;SDS011;67098;51.140;4.088;2023-06-10T00:36:19;12.52;;;7.72;;
32216;SDS011;67098;51.140;4.088;2023-06-10T00:38:46;8.40;;;7.22;;
32216;SDS011;67098;51.140;4.088;2023-06-10T00:41:11;13.73;;;7.72;;
32216;SDS011;67098;51.140;4.088;2023-06-10T00:43:37;13.30;;;8.07;;
32216;SDS011;67098;51.140;4.088;2023-06-10T00:46:03;11.88;;;8.02;;
32216;SDS011;67098;51.140;4.088;2023-06-10T00:48:29;13.98;;;8.05;;
32216;SDS011;67098;51.140;4.088;2023-06-10T00:50:55;9.77;;;7.25;;
32216;SDS011;67098;51.140;4.088;2023-06-10T00:53:22;10.20;;;7.43;;
32216;SDS011;67098;51.140;4.088;2023-06-10T00:55:48;19.00;;;7.95;;
32216;SDS011;67098;51.140;4.088;2023-06-10T00:58:14;13.77;;;8.00;;
32216;SDS011;67098;51.140;4.088;2023-06-10T01:00:40;13.00;;;8.27;;
32216;SDS011;67098;51.140;4.088;2023-06-10T01:03:06;11.52;;;7.60;;
32216;SDS011;67098;51.140;4.088;2023-06-10T01:05:38;13.70;;;7.65;;
32216;SDS011;67098;51.140;4.088;2023-06-10T01:08:12;12.85;;;8.07;;
32216;SDS011;67098;51.140;4.088;2023-06-10T01:10:45;13.80;;;8.55;;
32216;SDS011;67098;51.140;4.088;2023-06-10T01:13:23;14.73;;;8.48;;
32216;SDS011;67098;51.140;4.088;2023-06-10T01:15:54;14.35;;;8.48;;
32216;SDS011;67098;51.140;4.088;2023-06-10T01:18:21;13.80;;;8.23;;
32216;SDS011;67098;51.140;4.088;2023-06-10T01:20:47;12.43;;;8.10;;
32216;SDS011;67098;51.140;4.088;2023-06-10T01:23:14;12.05;;;8.68;;
32216;SDS011;67098;51.140;4.088;2023-06-10T01:25:45;14.38;;;8.13;;
32216;SDS011;67098;51.140;4.088;2023-06-10T01:28:18;12.75;;;8.05;;
32216;SDS011;67098;51.140;4.088;2023-06-10T01:34:03;12.32;;;8.23;;
32216;SDS011;67098;51.140;4.088;2023-06-10T01:36:33;11.90;;;7.75;;
32216;SDS011;67098;51.140;4.088;2023-06-10T01:39:02;11.60;;;8.25;;
32216;SDS011;67098;51.140;4.088;2023-06-10T01:41:29;12.98;;;8.13;;
32216;SDS011;67098;51.140;4.088;2023-06-10T01:43:56;13.93;;;8.38;;
32216;SDS011;67098;51.140;4.088;2023-06-10T01:46:21;12.48;;;7.95;;
32216;SDS011;67098;51.140;4.088;2023-06-10T01:48:48;14.88;;;8.38;;
32216;SDS011;67098;51.140;4.088;2023-06-10T01:51:13;12.55;;;8.73;;
32216;SDS011;67098;51.140;4.088;2023-06-10T01:53:39;11.85;;;8.60;;
32216;SDS011;67098;51.140;4.088;2023-06-10T01:56:05;13.38;;;8.27;;
32216;SDS011;67098;51.140;4.088;2023-06-10T01:58:31;9.90;;;8.20;;
32216;SDS011;67098;51.140;4.088;2023-06-10T02:00:56;14.80;;;9.00;;
32216;SDS011;67098;51.140;4.088;2023-06-10T02:03:22;10.02;;;7.68;;
32216;SDS011;67098;51.140;4.088;2023-06-10T02:05:48;13.02;;;8.70;;
32216;SDS011;67098;51.140;4.088;2023-06-10T02:08:14;11.15;;;8.50;;
32216;SDS011;67098;51.140;4.088;2023-06-10T02:10:40;12.75;;;8.18;;
32216;SDS011;67098;51.140;4.088;2023-06-10T02:13:06;13.05;;;9.27;;
32216;SDS011;67098;51.140;4.088;2023-06-10T02:15:32;16.95;;;9.07;;
32216;SDS011;67098;51.140;4.088;2023-06-10T02:17:58;15.70;;;9.00;;
32216;SDS011;67098;51.140;4.088;2023-06-10T02:20:25;15.50;;;8.90;;
32216;SDS011;67098;51.140;4.088;2023-06-10T02:22:51;13.35;;;9.45;;
32216;SDS011;67098;51.140;4.088;2023-06-10T02:25:17;14.68;;;8.77;;
32216;SDS011;67098;51.140;4.088;2023-06-10T02:27:43;11.50;;;8.55;;
32216;SDS011;67098;51.140;4.088;2023-06-10T02:30:09;15.10;;;9.10;;
32216;SDS011;67098;51.140;4.088;2023-06-10T02:32:35;15.73;;;9.05;;
32216;SDS011;67098;51.140;4.088;2023-06-10T02:35:01;13.32;;;9.77;;
32216;SDS011;67098;51.140;4.088;2023-06-10T02:37:27;13.43;;;8.55;;
32216;SDS011;67098;51.140;4.088;2023-06-10T02:39:53;12.15;;;8.98;;
32216;SDS011;67098;51.140;4.088;2023-06-10T02:42:18;16.63;;;9.43;;
32216;SDS011;67098;51.140;4.088;2023-06-10T02:44:44;14.07;;;9.30;;
32216;SDS011;67098;51.140;4.088;2023-06-10T02:47:10;18.40;;;9.55;;
32216;SDS011;67098;51.140;4.088;2023-06-10T02:49:36;12.23;;;9.30;;
32216;SDS011;67098;51.140;4.088;2023-06-10T02:52:02;15.18;;;9.85;;
32216;SDS011;67098;51.140;4.088;2023-06-10T02:54:28;12.02;;;9.25;;
32216;SDS011;67098;51.140;4.088;2023-06-10T02:56:53;12.95;;;9.82;;
32216;SDS011;67098;51.140;4.088;2023-06-10T02:59:21;16.73;;;9.57;;
32216;SDS011;67098;51.140;4.088;2023-06-10T03:01:47;15.75;;;10.15;;
32216;SDS011;67098;51.140;4.088;2023-06-10T03:04:13;15.73;;;9.15;;
32216;SDS011;67098;51.140;4.088;2023-06-10T03:06:39;15.30;;;9.68;;
32216;SDS011;67098;51.140;4.088;2023-06-10T03:09:10;14.80;;;9.65;;
32216;SDS011;67098;51.140;4.088;2023-06-10T03:11:36;13.68;;;9.95;;
32216;SDS011;67098;51.140;4.088;2023-06-10T03:14:02;13.52;;;8.90;;
32216;SDS011;67098;51.140;4.088;2023-06-10T03:16:29;16.33;;;9.65;;
32216;SDS011;67098;51.140;4.088;2023-06-10T03:18:56;17.42;;;9.63;;
32216;SDS011;67098;51.140;4.088;2023-06-10T03:21:22;12.75;;;9.65;;
32216;SDS011;67098;51.140;4.088;2023-06-10T03:23:48;13.75;;;9.93;;
32216;SDS011;67098;51.140;4.088;2023-06-10T03:26:14;12.23;;;9.98;;
32216;SDS011;67098;51.140;4.088;2023-06-10T03:28:40;15.38;;;9.68;;
32216;SDS011;67098;51.140;4.088;2023-06-10T03:31:06;14.27;;;9.90;;
32216;SDS011;67098;51.140;4.088;2023-06-10T03:33:32;15.63;;;9.90;;
32216;SDS011;67098;51.140;4.088;2023-06-10T03:35:58;15.50;;;10.32;;
32216;SDS011;67098;51.140;4.088;2023-06-10T03:38:24;18.65;;;10.90;;
32216;SDS011;67098;51.140;4.088;2023-06-10T03:40:49;12.75;;;9.52;;
32216;SDS011;67098;51.140;4.088;2023-06-10T03:43:15;14.93;;;10.35;;
32216;SDS011;67098;51.140;4.088;2023-06-10T03:45:41;15.38;;;9.95;;
32216;SDS011;67098;51.140;4.088;2023-06-10T03:48:07;14.02;;;10.25;;
32216;SDS011;67098;51.140;4.088;2023-06-10T03:50:33;14.73;;;10.85;;
32216;SDS011;67098;51.140;4.088;2023-06-10T03:53:01;13.63;;;10.13;;
32216;SDS011;67098;51.140;4.088;2023-06-10T03:55:27;15.75;;;10.68;;
32216;SDS011;67098;51.140;4.088;2023-06-10T03:57:53;20.20;;;10.48;;
32216;SDS011;67098;51.140;4.088;2023-06-10T04:00:18;15.25;;;10.27;;
32216;SDS011;67098;51.140;4.088;2023-06-10T04:02:47;14.98;;;10.23;;
32216;SDS011;67098;51.140;4.088;2023-06-10T04:05:18;12.65;;;9.40;;
32216;SDS011;67098;51.140;4.088;2023-06-10T04:07:46;18.45;;;10.90;;
32216;SDS011;67098;51.140;4.088;2023-06-10T04:10:13;17.05;;;10.63;;
32216;SDS011;67098;51.140;4.088;2023-06-10T04:12:40;12.85;;;10.20;;
32216;SDS011;67098;51.140;4.088;2023-06-10T04:15:06;17.10;;;10.40;;
32216;SDS011;67098;51.140;4.088;2023-06-10T04:17:33;16.27;;;10.88;;
32216;SDS011;67098;51.140;4.088;2023-06-10T04:19:59;13.73;;;10.48;;
32216;SDS011;67098;51.140;4.088;2023-06-10T04:22:25;16.85;;;10.63;;
32216;SDS011;67098;51.140;4.088;2023-06-10T04:24:52;13.85;;;10.20;;
32216;SDS011;67098;51.140;4.088;2023-06-10T04:27:18;16.33;;;11.43;;
32216;SDS011;67098;51.140;4.088;2023-06-10T04:29:44;14.30;;;10.75;;
32216;SDS011;67098;51.140;4.088;2023-06-10T04:32:09;16.92;;;11.20;;
32216;SDS011;67098;51.140;4.088;2023-06-10T04:34:35;16.70;;;10.35;;
32216;SDS011;67098;51.140;4.088;2023-06-10T04:37:04;12.73;;;9.77;;
32216;SDS011;67098;51.140;4.088;2023-06-10T04:39:30;13.70;;;10.25;;
32216;SDS011;67098;51.140;4.088;2023-06-10T04:41:55;14.80;;;10.88;;
32216;SDS011;67098;51.140;4.088;2023-06-10T04:44:21;16.60;;;10.10;;
32216;SDS011;67098;51.140;4.088;2023-06-10T04:46:47;14.20;;;10.48;;
32216;SDS011;67098;51.140;4.088;2023-06-10T04:49:13;15.07;;;9.43;;
32216;SDS011;67098;51.140;4.088;2023-06-10T04:51:41;14.10;;;10.45;;
32216;SDS011;67098;51.140;4.088;2023-06-10T04:54:07;16.63;;;10.90;;
32216;SDS011;67098;51.140;4.088;2023-06-10T04:56:34;13.43;;;9.65;;
32216;SDS011;67098;51.140;4.088;2023-06-10T04:59:00;21.17;;;9.93;;
32216;SDS011;67098;51.140;4.088;2023-06-10T05:01:27;14.95;;;10.15;;
32216;SDS011;67098;51.140;4.088;2023-06-10T05:03:52;12.35;;;9.85;;
32216;SDS011;67098;51.140;4.088;2023-06-10T05:06:18;11.82;;;9.63;;
32216;SDS011;67098;51.140;4.088;2023-06-10T05:08:44;14.30;;;9.63;;
32216;SDS011;67098;51.140;4.088;2023-06-10T05:11:10;18.05;;;10.32;;
32216;SDS011;67098;51.140;4.088;2023-06-10T05:13:35;14.77;;;9.63;;
32216;SDS011;67098;51.140;4.088;2023-06-10T05:16:01;11.35;;;9.60;;
32216;SDS011;67098;51.140;4.088;2023-06-10T05:18:27;14.90;;;9.52;;
32216;SDS011;67098;51.140;4.088;2023-06-10T05:20:54;12.85;;;9.95;;
32216;SDS011;67098;51.140;4.088;2023-06-10T05:23:20;15.80;;;10.07;;
32216;SDS011;67098;51.140;4.088;2023-06-10T05:25:46;13.05;;;9.75;;
32216;SDS011;67098;51.140;4.088;2023-06-10T05:28:16;15.45;;;9.63;;
32216;SDS011;67098;51.140;4.088;2023-06-10T05:30:55;15.52;;;9.48;;
32216;SDS011;67098;51.140;4.088;2023-06-10T05:33:20;14.43;;;9.60;;
32216;SDS011;67098;51.140;4.088;2023-06-10T05:35:46;14.38;;;8.85;;
32216;SDS011;67098;51.140;4.088;2023-06-10T05:38:12;14.15;;;9.85;;
32216;SDS011;67098;51.140;4.088;2023-06-10T05:40:38;15.32;;;9.73;;
32216;SDS011;67098;51.140;4.088;2023-06-10T05:43:03;13.50;;;9.65;;
32216;SDS011;67098;51.140;4.088;2023-06-10T05:45:29;14.70;;;9.55;;
32216;SDS011;67098;51.140;4.088;2023-06-10T05:47:55;13.43;;;9.23;;
32216;SDS011;67098;51.140;4.088;2023-06-10T05:50:21;17.48;;;9.82;;
32216;SDS011;67098;51.140;4.088;2023-06-10T05:52:47;21.02;;;9.88;;
32216;SDS011;67098;51.140;4.088;2023-06-10T05:55:13;14.75;;;9.82;;
32216;SDS011;67098;51.140;4.088;2023-06-10T05:57:40;13.15;;;9.73;;
32216;SDS011;67098;51.140;4.088;2023-06-10T06:00:07;20.83;;;9.48;;
32216;SDS011;67098;51.140;4.088;2023-06-10T06:02:33;16.85;;;10.40;;
32216;SDS011;67098;51.140;4.088;2023-06-10T06:04:59;12.77;;;9.23;;
32216;SDS011;67098;51.140;4.088;2023-06-10T06:07:26;12.48;;;9.50;;
32216;SDS011;67098;51.140;4.088;2023-06-10T06:09:51;14.38;;;9.32;;
32216;SDS011;67098;51.140;4.088;2023-06-10T06:12:17;16.08;;;9.35;;
32216;SDS011;67098;51.140;4.088;2023-06-10T06:14:43;11.82;;;9.23;;
32216;SDS011;67098;51.140;4.088;2023-06-10T06:17:09;14.32;;;9.25;;
32216;SDS011;67098;51.140;4.088;2023-06-10T06:19:35;10.43;;;8.77;;
32216;SDS011;67098;51.140;4.088;2023-06-10T06:22:01;10.55;;;7.85;;
32216;SDS011;67098;51.140;4.088;2023-06-10T06:24:27;12.20;;;8.95;;
32216;SDS011;67098;51.140;4.088;2023-06-10T06:26:53;16.60;;;9.45;;
32216;SDS011;67098;51.140;4.088;2023-06-10T06:29:19;15.65;;;9.13;;
32216;SDS011;67098;51.140;4.088;2023-06-10T06:31:44;14.77;;;9.93;;
32216;SDS011;67098;51.140;4.088;2023-06-10T06:34:10;11.95;;;8.82;;
32216;SDS011;67098;51.140;4.088;2023-06-10T06:36:36;11.70;;;8.40;;
32216;SDS011;67098;51.140;4.088;2023-06-10T06:39:02;13.27;;;8.82;;
32216;SDS011;67098;51.140;4.088;2023-06-10T06:41:27;14.98;;;8.98;;
32216;SDS011;67098;51.140;4.088;2023-06-10T06:43:54;14.60;;;9.05;;
32216;SDS011;67098;51.140;4.088;2023-06-10T06:46:20;12.43;;;8.82;;
32216;SDS011;67098;51.140;4.088;2023-06-10T06:48:47;10.73;;;8.63;;
32216;SDS011;67098;51.140;4.088;2023-06-10T06:51:13;12.80;;;8.52;;
32216;SDS011;67098;51.140;4.088;2023-06-10T06:53:39;12.90;;;8.95;;
32216;SDS011;67098;51.140;4.088;2023-06-10T06:56:10;11.63;;;8.52;;
32216;SDS011;67098;51.140;4.088;2023-06-10T06:58:36;10.73;;;8.00;;
32216;SDS011;67098;51.140;4.088;2023-06-10T07:01:02;11.98;;;8.57;;
32216;SDS011;67098;51.140;4.088;2023-06-10T07:03:28;11.60;;;7.93;;
32216;SDS011;67098;51.140;4.088;2023-06-10T07:05:53;16.95;;;8.43;;
32216;SDS011;67098;51.140;4.088;2023-06-10T07:08:19;16.75;;;8.52;;
32216;SDS011;67098;51.140;4.088;2023-06-10T07:10:45;11.50;;;7.93;;
32216;SDS011;67098;51.140;4.088;2023-06-10T07:13:11;15.68;;;7.88;;
32216;SDS011;67098;51.140;4.088;2023-06-10T07:15:36;10.55;;;7.60;;
32216;SDS011;67098;51.140;4.088;2023-06-10T07:18:03;13.48;;;7.97;;
32216;SDS011;67098;51.140;4.088;2023-06-10T07:20:30;12.88;;;8.48;;
32216;SDS011;67098;51.140;4.088;2023-06-10T07:22:57;13.48;;;8.10;;
32216;SDS011;67098;51.140;4.088;2023-06-10T07:25:23;10.45;;;7.93;;
32216;SDS011;67098;51.140;4.088;2023-06-10T07:27:50;10.55;;;7.57;;
32216;SDS011;67098;51.140;4.088;2023-06-10T07:30:16;17.08;;;8.13;;
32216;SDS011;67098;51.140;4.088;2023-06-10T07:32:41;9.77;;;7.60;;
32216;SDS011;67098;51.140;4.088;2023-06-10T07:35:09;13.18;;;7.43;;
32216;SDS011;67098;51.140;4.088;2023-06-10T07:37:38;13.13;;;7.23;;
32216;SDS011;67098;51.140;4.088;2023-06-10T07:40:04;9.93;;;7.30;;
32216;SDS011;67098;51.140;4.088;2023-06-10T07:42:31;12.80;;;7.15;;
32216;SDS011;67098;51.140;4.088;2023-06-10T07:44:59;7.88;;;7.07;;
32216;SDS011;67098;51.140;4.088;2023-06-10T07:47:27;12.90;;;6.82;;
32216;SDS011;67098;51.140;4.088;2023-06-10T07:49:52;11.13;;;7.43;;
32216;SDS011;67098;51.140;4.088;2023-06-10T07:52:18;10.80;;;7.60;;
32216;SDS011;67098;51.140;4.088;2023-06-10T07:54:44;9.25;;;7.00;;
32216;SDS011;67098;51.140;4.088;2023-06-10T07:57:10;11.05;;;6.85;;
32216;SDS011;67098;51.140;4.088;2023-06-10T07:59:36;13.88;;;6.85;;
32216;SDS011;67098;51.140;4.088;2023-06-10T08:02:02;10.43;;;7.20;;
32216;SDS011;67098;51.140;4.088;2023-06-10T08:04:28;14.45;;;6.95;;
32216;SDS011;67098;51.140;4.088;2023-06-10T08:06:55;10.63;;;6.63;;
32216;SDS011;67098;51.140;4.088;2023-06-10T08:09:21;8.77;;;6.38;;
32216;SDS011;67098;51.140;4.088;2023-06-10T08:11:48;8.13;;;6.07;;
32216;SDS011;67098;51.140;4.088;2023-06-10T08:14:14;8.55;;;6.60;;
32216;SDS011;67098;51.140;4.088;2023-06-10T08:16:41;13.23;;;6.78;;
32216;SDS011;67098;51.140;4.088;2023-06-10T08:19:08;9.52;;;6.25;;
32216;SDS011;67098;51.140;4.088;2023-06-10T08:21:34;9.48;;;6.50;;
32216;SDS011;67098;51.140;4.088;2023-06-10T08:24:02;9.07;;;6.05;;
32216;SDS011;67098;51.140;4.088;2023-06-10T08:26:28;14.27;;;6.07;;
32216;SDS011;67098;51.140;4.088;2023-06-10T08:28:54;16.63;;;6.72;;
32216;SDS011;67098;51.140;4.088;2023-06-10T08:31:20;8.95;;;7.10;;
32216;SDS011;67098;51.140;4.088;2023-06-10T08:33:46;6.80;;;5.82;;
32216;SDS011;67098;51.140;4.088;2023-06-10T08:36:12;9.13;;;7.03;;
32216;SDS011;67098;51.140;4.088;2023-06-10T08:38:38;11.25;;;6.50;;
32216;SDS011;67098;51.140;4.088;2023-06-10T08:41:05;7.75;;;5.93;;
32216;SDS011;67098;51.140;4.088;2023-06-10T08:43:46;8.20;;;5.50;;
32216;SDS011;67098;51.140;4.088;2023-06-10T08:46:20;11.10;;;5.75;;
32216;SDS011;67098;51.140;4.088;2023-06-10T08:48:45;10.43;;;5.95;;
32216;SDS011;67098;51.140;4.088;2023-06-10T08:51:16;8.55;;;5.95;;
32216;SDS011;67098;51.140;4.088;2023-06-10T08:53:48;6.60;;;5.85;;
32216;SDS011;67098;51.140;4.088;2023-06-10T08:56:19;6.35;;;5.70;;
32216;SDS011;67098;51.140;4.088;2023-06-10T08:58:47;6.07;;;5.43;;
32216;SDS011;67098;51.140;4.088;2023-06-10T09:01:13;8.20;;;6.13;;
32216;SDS011;67098;51.140;4.088;2023-06-10T09:03:41;13.02;;;6.05;;
32216;SDS011;67098;51.140;4.088;2023-06-10T09:06:07;10.63;;;5.72;;
32216;SDS011;67098;51.140;4.088;2023-06-10T09:08:34;7.53;;;5.30;;
32216;SDS011;67098;51.140;4.088;2023-06-10T09:11:00;7.88;;;5.72;;
32216;SDS011;67098;51.140;4.088;2023-06-10T09:13:26;9.02;;;5.93;;
32216;SDS011;67098;51.140;4.088;2023-06-10T09:15:52;15.27;;;6.03;;
32216;SDS011;67098;51.140;4.088;2023-06-10T09:18:18;10.05;;;5.60;;
32216;SDS011;67098;51.140;4.088;2023-06-10T09:20:44;10.95;;;5.47;;
32216;SDS011;67098;51.140;4.088;2023-06-10T09:23:09;6.32;;;5.57;;
32216;SDS011;67098;51.140;4.088;2023-06-10T09:25:36;6.38;;;5.25;;
32216;SDS011;67098;51.140;4.088;2023-06-10T09:28:03;8.98;;;5.63;;
32216;SDS011;67098;51.140;4.088;2023-06-10T09:30:30;5.70;;;4.82;;
32216;SDS011;67098;51.140;4.088;2023-06-10T09:33:00;10.60;;;6.03;;
32216;SDS011;67098;51.140;4.088;2023-06-10T09:35:28;9.25;;;5.65;;
32216;SDS011;67098;51.140;4.088;2023-06-10T09:37:56;6.85;;;5.22;;
32216;SDS011;67098;51.140;4.088;2023-06-10T09:40:23;11.15;;;5.35;;
32216;SDS011;67098;51.140;4.088;2023-06-10T09:42:53;7.40;;;5.07;;
32216;SDS011;67098;51.140;4.088;2023-06-10T09:45:20;9.93;;;5.30;;
32216;SDS011;67098;51.140;4.088;2023-06-10T09:47:47;12.07;;;4.78;;
32216;SDS011;67098;51.140;4.088;2023-06-10T09:50:16;7.05;;;5.38;;
32216;SDS011;67098;51.140;4.088;2023-06-10T09:52:42;6.05;;;5.18;;
32216;SDS011;67098;51.140;4.088;2023-06-10T09:55:10;9.05;;;5.28;;
32216;SDS011;67098;51.140;4.088;2023-06-10T09:57:36;7.05;;;5.25;;
32216;SDS011;67098;51.140;4.088;2023-06-10T10:00:05;8.07;;;5.25;;
32216;SDS011;67098;51.140;4.088;2023-06-10T10:02:33;7.72;;;5.20;;
32216;SDS011;67098;51.140;4.088;2023-06-10T10:05:16;6.63;;;5.72;;
32216;SDS011;67098;51.140;4.088;2023-06-10T10:07:44;5.95;;;4.88;;
32216;SDS011;67098;51.140;4.088;2023-06-10T10:10:11;11.20;;;5.57;;
32216;SDS011;67098;51.140;4.088;2023-06-10T10:12:38;7.53;;;5.22;;
32216;SDS011;67098;51.140;4.088;2023-06-10T10:15:08;8.52;;;5.00;;
32216;SDS011;67098;51.140;4.088;2023-06-10T10:17:46;7.45;;;4.95;;
32216;SDS011;67098;51.140;4.088;2023-06-10T10:20:26;8.50;;;5.25;;
32216;SDS011;67098;51.140;4.088;2023-06-10T10:22:58;5.80;;;5.22;;
32216;SDS011;67098;51.140;4.088;2023-06-10T10:25:27;8.20;;;5.38;;
32216;SDS011;67098;51.140;4.088;2023-06-10T10:27:59;6.93;;;4.57;;
32216;SDS011;67098;51.140;4.088;2023-06-10T10:30:41;5.95;;;5.13;;
32216;SDS011;67098;51.140;4.088;2023-06-10T10:33:12;7.45;;;5.93;;
32216;SDS011;67098;51.140;4.088;2023-06-10T10:35:43;10.80;;;5.65;;
32216;SDS011;67098;51.140;4.088;2023-06-10T10:38:09;7.70;;;5.35;;
32216;SDS011;67098;51.140;4.088;2023-06-10T10:40:35;8.57;;;6.00;;
32216;SDS011;67098;51.140;4.088;2023-06-10T10:43:02;8.48;;;5.57;;
32216;SDS011;67098;51.140;4.088;2023-06-10T10:45:28;7.65;;;5.47;;
32216;SDS011;67098;51.140;4.088;2023-06-10T10:47:54;6.30;;;4.97;;
32216;SDS011;67098;51.140;4.088;2023-06-10T10:50:21;7.40;;;5.65;;
32216;SDS011;67098;51.140;4.088;2023-06-10T10:55:20;8.73;;;5.50;;
32216;SDS011;67098;51.140;4.088;2023-06-10T10:57:53;7.45;;;5.13;;
32216;SDS011;67098;51.140;4.088;2023-06-10T11:00:27;11.45;;;5.05;;
32216;SDS011;67098;51.140;4.088;2023-06-10T11:02:54;7.25;;;5.53;;
32216;SDS011;67098;51.140;4.088;2023-06-10T11:08:13;8.27;;;5.30;;
32216;SDS011;67098;51.140;4.088;2023-06-10T11:10:41;9.57;;;5.28;;
32216;SDS011;67098;51.140;4.088;2023-06-10T11:13:19;7.10;;;4.88;;
32216;SDS011;67098;51.140;4.088;2023-06-10T11:15:46;5.38;;;4.85;;
32216;SDS011;67098;51.140;4.088;2023-06-10T11:20:54;10.02;;;6.30;;
32216;SDS011;67098;51.140;4.088;2023-06-10T11:29:22;9.27;;;5.40;;
32216;SDS011;67098;51.140;4.088;2023-06-10T11:31:30;12.27;;;5.60;;
32216;SDS011;67098;51.140;4.088;2023-06-10T11:33:57;13.80;;;5.80;;
32216;SDS011;67098;51.140;4.088;2023-06-10T11:36:28;8.63;;;5.75;;
32216;SDS011;67098;51.140;4.088;2023-06-10T11:38:58;7.90;;;5.47;;
32216;SDS011;67098;51.140;4.088;2023-06-10T11:41:26;6.47;;;5.25;;
32216;SDS011;67098;51.140;4.088;2023-06-10T11:43:56;5.63;;;5.00;;
32216;SDS011;67098;51.140;4.088;2023-06-10T11:46:26;7.22;;;5.40;;
32216;SDS011;67098;51.140;4.088;2023-06-10T11:48:56;6.78;;;5.00;;
32216;SDS011;67098;51.140;4.088;2023-06-10T11:51:27;8.93;;;5.40;;
32216;SDS011;67098;51.140;4.088;2023-06-10T11:53:55;6.18;;;4.90;;
32216;SDS011;67098;51.140;4.088;2023-06-10T11:58:51;11.65;;;6.05;;
32216;SDS011;67098;51.140;4.088;2023-06-10T12:01:23;10.48;;;5.72;;
32216;SDS011;67098;51.140;4.088;2023-06-10T12:04:07;6.00;;;5.03;;
32216;SDS011;67098;51.140;4.088;2023-06-10T12:06:44;9.57;;;4.85;;
32216;SDS011;67098;51.140;4.088;2023-06-10T12:09:17;9.10;;;5.20;;
32216;SDS011;67098;51.140;4.088;2023-06-10T12:11:43;6.45;;;5.50;;
32216;SDS011;67098;51.140;4.088;2023-06-10T12:14:09;6.78;;;4.82;;
32216;SDS011;67098;51.140;4.088;2023-06-10T12:16:35;8.20;;;5.00;;
32216;SDS011;67098;51.140;4.088;2023-06-10T12:19:02;6.78;;;5.18;;
32216;SDS011;67098;51.140;4.088;2023-06-10T12:21:29;9.18;;;4.93;;
32216;SDS011;67098;51.140;4.088;2023-06-10T12:24:06;9.70;;;4.72;;
32216;SDS011;67098;51.140;4.088;2023-06-10T12:26:43;10.18;;;5.25;;
32216;SDS011;67098;51.140;4.088;2023-06-10T12:29:23;8.30;;;5.13;;
32216;SDS011;67098;51.140;4.088;2023-06-10T12:34:35;6.95;;;5.15;;
32216;SDS011;67098;51.140;4.088;2023-06-10T12:37:12;7.07;;;5.38;;
32216;SDS011;67098;51.140;4.088;2023-06-10T12:39:41;9.35;;;5.10;;
32216;SDS011;67098;51.140;4.088;2023-06-10T12:42:12;7.40;;;5.75;;
32216;SDS011;67098;51.140;4.088;2023-06-10T12:44:41;10.32;;;5.40;;
32216;SDS011;67098;51.140;4.088;2023-06-10T12:47:07;7.45;;;5.40;;
32216;SDS011;67098;51.140;4.088;2023-06-10T12:49:35;8.93;;;5.63;;
32216;SDS011;67098;51.140;4.088;2023-06-10T12:52:01;10.75;;;5.40;;
32216;SDS011;67098;51.140;4.088;2023-06-10T12:54:27;6.03;;;4.75;;
32216;SDS011;67098;51.140;4.088;2023-06-10T12:56:53;6.03;;;5.47;;
32216;SDS011;67098;51.140;4.088;2023-06-10T12:59:20;12.30;;;4.90;;
32216;SDS011;67098;51.140;4.088;2023-06-10T13:01:52;7.05;;;4.95;;
32216;SDS011;67098;51.140;4.088;2023-06-10T13:04:21;6.07;;;5.30;;
32216;SDS011;67098;51.140;4.088;2023-06-10T13:06:48;10.52;;;5.63;;
32216;SDS011;67098;51.140;4.088;2023-06-10T13:09:14;6.53;;;5.35;;
32216;SDS011;67098;51.140;4.088;2023-06-10T13:11:41;10.95;;;5.47;;
32216;SDS011;67098;51.140;4.088;2023-06-10T13:14:07;8.80;;;5.30;;
32216;SDS011;67098;51.140;4.088;2023-06-10T13:16:36;6.45;;;5.50;;
32216;SDS011;67098;51.140;4.088;2023-06-10T13:19:03;5.97;;;5.38;;
32216;SDS011;67098;51.140;4.088;2023-06-10T13:21:30;8.50;;;5.28;;
32216;SDS011;67098;51.140;4.088;2023-06-10T13:23:57;7.00;;;5.18;;
32216;SDS011;67098;51.140;4.088;2023-06-10T13:26:23;8.02;;;5.25;;
32216;SDS011;67098;51.140;4.088;2023-06-10T13:28:48;5.78;;;4.72;;
32216;SDS011;67098;51.140;4.088;2023-06-10T13:31:14;8.52;;;5.50;;
32216;SDS011;67098;51.140;4.088;2023-06-10T13:33:40;7.22;;;5.68;;
32216;SDS011;67098;51.140;4.088;2023-06-10T13:36:08;8.75;;;5.32;;
32216;SDS011;67098;51.140;4.088;2023-06-10T13:38:34;5.25;;;4.75;;
32216;SDS011;67098;51.140;4.088;2023-06-10T13:41:00;11.25;;;5.80;;
32216;SDS011;67098;51.140;4.088;2023-06-10T13:43:26;15.50;;;5.60;;
32216;SDS011;67098;51.140;4.088;2023-06-10T13:45:52;10.63;;;5.40;;
32216;SDS011;67098;51.140;4.088;2023-06-10T13:48:17;10.73;;;5.22;;
32216;SDS011;67098;51.140;4.088;2023-06-10T13:50:43;9.50;;;5.13;;
32216;SDS011;67098;51.140;4.088;2023-06-10T13:53:10;7.43;;;5.47;;
32216;SDS011;67098;51.140;4.088;2023-06-10T13:55:37;8.82;;;5.15;;
32216;SDS011;67098;51.140;4.088;2023-06-10T13:58:02;9.68;;;5.00;;
32216;SDS011;67098;51.140;4.088;2023-06-10T14:00:28;6.40;;;5.38;;
32216;SDS011;67098;51.140;4.088;2023-06-10T14:02:54;7.78;;;5.55;;
32216;SDS011;67098;51.140;4.088;2023-06-10T14:05:20;6.43;;;4.82;;
32216;SDS011;67098;51.140;4.088;2023-06-10T14:07:46;7.32;;;5.13;;
32216;SDS011;67098;51.140;4.088;2023-06-10T14:10:12;9.30;;;5.28;;
32216;SDS011;67098;51.140;4.088;2023-06-10T14:12:37;8.60;;;5.35;;
32216;SDS011;67098;51.140;4.088;2023-06-10T14:15:04;12.55;;;5.30;;
32216;SDS011;67098;51.140;4.088;2023-06-10T14:17:30;5.93;;;4.75;;
32216;SDS011;67098;51.140;4.088;2023-06-10T14:19:56;9.00;;;5.40;;
32216;SDS011;67098;51.140;4.088;2023-06-10T14:22:21;6.82;;;5.15;;
32216;SDS011;67098;51.140;4.088;2023-06-10T14:24:47;6.68;;;5.50;;
32216;SDS011;67098;51.140;4.088;2023-06-10T14:27:13;6.85;;;5.45;;
32216;SDS011;67098;51.140;4.088;2023-06-10T14:29:38;7.25;;;5.13;;
32216;SDS011;67098;51.140;4.088;2023-06-10T14:32:05;12.60;;;5.10;;
32216;SDS011;67098;51.140;4.088;2023-06-10T14:34:32;10.40;;;4.97;;
32216;SDS011;67098;51.140;4.088;2023-06-10T14:37:01;5.82;;;5.07;;
32216;SDS011;67098;51.140;4.088;2023-06-10T14:39:29;17.50;;;5.55;;
32216;SDS011;67098;51.140;4.088;2023-06-10T14:41:54;7.30;;;4.80;;
32216;SDS011;67098;51.140;4.088;2023-06-10T14:44:20;5.50;;;5.00;;
32216;SDS011;67098;51.140;4.088;2023-06-10T14:46:46;11.23;;;4.97;;
32216;SDS011;67098;51.140;4.088;2023-06-10T14:49:12;6.40;;;4.82;;
32216;SDS011;67098;51.140;4.088;2023-06-10T14:51:38;9.43;;;5.03;;
32216;SDS011;67098;51.140;4.088;2023-06-10T14:54:04;6.75;;;5.32;;
32216;SDS011;67098;51.140;4.088;2023-06-10T14:56:29;7.07;;;5.53;;
32216;SDS011;67098;51.140;4.088;2023-06-10T14:58:55;7.38;;;5.32;;
32216;SDS011;67098;51.140;4.088;2023-06-10T15:01:21;9.27;;;5.30;;